Spaulding, California
Current Conditions -  °F | °C
As of 1:02 AM on Sunday 26 Oct 2014 (Local Time) from KAAT Reporting Station
Overcast Overcast  
Wind Chill: 38°   Ceiling: 2900
Heat Index: 43°   Visibility: 10mi
Dew Point: 39°   Wind: 8mph
Humidity: 86%   Direction: 200°SSW
Pressure: 30.06"   Gusts: NA
Location:  40.5172°N, 120.68°W
Report Text: KAAT 260802Z AUTO 20007KT 10SM SCT022 BKN029 OVC035 06/04 A3006 RMK AO2 T00610039 $
Loading
Personal Weather Stations






























Interactive Weather Map
Tropical Storm Tracking
New forecast layout! Learn more

10-Day Weather Forecast

Advertisements
Track Severe Weather on mobile